ADDS - METARS form results

Aviation Digital Data Service (ADDS)

Output produced by METARs form (2145 UTC 19 February 2019)
found at http://aviationweather.gov/metar/data/
 
METAR text: KC09 192135Z AUTO 13005KT 10SM SCT030 01/M05 A3049 RMK AO2 T00051050
Conditions at: KC09 (MORRIS-WASHBURN , IL, US) observed 2135 UTC 19 February 2019
Temperature: 0.5°C (33°F)
Dewpoint: -5.0°C (23°F) [RH = 67%]
Pressure (altimeter): 30.49 inches Hg (1032.6 mb)
Winds: from the SE (130 degrees) at 6 MPH (5 knots; 2.6 m/s)
Visibility: 10 or more miles (16+ km)
Ceiling: at least 12,000 feet AGL
Clouds: scattered clouds at 3000 feet AGL
Weather: automated observation with no human augmentation;
there may or may not be significant weather present at this time

METAR text: KC09 192115Z AUTO 00000KT 10SM BKN028 01/M05 A3048 RMK AO2 T00061050
Conditions at: KC09 (MORRIS-WASHBURN , IL, US) observed 2115 UTC 19 February 2019
Temperature: 0.6°C (33°F)
Dewpoint: -5.0°C (23°F) [RH = 66%]
Pressure (altimeter): 30.48 inches Hg (1032.3 mb)
Winds: calm
Visibility: 10 or more miles (16+ km)
Ceiling: 2800 feet AGL
Clouds: broken clouds at 2800 feet AGL
Weather: automated observation with no human augmentation;
there may or may not be significant weather present at this time

METAR text: KC09 192055Z AUTO 00000KT 10SM BKN028 01/M05 A3048 RMK AO2 T00071051
Conditions at: KC09 (MORRIS-WASHBURN , IL, US) observed 2055 UTC 19 February 2019
Temperature: 0.7°C (33°F)
Dewpoint: -5.1°C (23°F) [RH = 65%]
Pressure (altimeter): 30.48 inches Hg (1032.3 mb)
Winds: calm
Visibility: 10 or more miles (16+ km)
Ceiling: 2800 feet AGL
Clouds: broken clouds at 2800 feet AGL
Weather: automated observation with no human augmentation;
there may or may not be significant weather present at this time